Flight Track Log - Related Links

Times and Time Zones

All times are in EDT time to prevent confusion due to time zone crossing. See the CTL311 flight status page for this flight to view local times or setup timezone preferences in your user account.

Time Position Orientation Groundspeed Altitude Reporting Facility
EDT Latitude Longitude Course Direction KTS MPH feet Rate Location/Type
Sun 02:27:10 AM 40.1264 -83.0831 335° Northwest 141 162 2,300  Level Indianapolis Center
Sun 02:27:59 AM 40.1581 -83.1019 335° Northwest 149 171 2,900 661 Climbing Indianapolis Center
Sun 02:28:59 AM 40.1939 -83.1242 335° Northwest 149 171 3,500 595 Climbing Indianapolis Center
Sun 02:30:00 AM 40.2361 -83.1447 340° North 158 182 4,100 595 Climbing Indianapolis Center
Sun 02:31:00 AM 40.2758 -83.1678 336° Northwest 159 183 4,700 645 Climbing Indianapolis Center
Sun 02:32:01 AM 40.3178 -83.1911 337° Northwest 161 185 5,400 639 Climbing Indianapolis Center
Sun 02:33:02 AM 40.3594 -83.2144 337° Northwest 160 184 6,000 347 Climbing Indianapolis Center
Sun 02:34:02 AM 40.3994 -83.2375 336° Northwest 163 188 6,100  Climbing Indianapolis Center
Sun 02:35:17 AM 40.4569 -83.2686 338° Northwest 170 196 6,000 -89 Descending Indianapolis Center
Sun 02:36:17 AM 40.4953 -83.2803 347° North 174 200 5,900 -50 Descending Indianapolis Center
Sun 02:37:17 AM 40.5486 -83.3039 341° North 176 203 5,900 100 Level Indianapolis Center
Sun 02:38:17 AM 40.5894 -83.3300 334° Northwest 168 193 6,100 99 Climbing Indianapolis Center
Sun 02:39:18 AM 40.6286 -83.3572 332° Northwest 162 186 6,100 -50 Level Indianapolis Center
Sun 02:40:18 AM 40.6731 -83.3797 339° North 167 192 6,000 -100 Descending Indianapolis Center
Sun 02:41:18 AM 40.7186 -83.4025 339° North 173 199 5,900 50 Descending Indianapolis Center
Sun 02:42:18 AM 40.7603 -83.4269 336° Northwest 168 193 6,100 50 Climbing Indianapolis Center
Sun 02:43:18 AM 40.7961 -83.4578 327° Northwest 161 185 6,000 -100 Descending Indianapolis Center
Sun 02:44:18 AM 40.8369 -83.4889 330° Northwest 165 190 5,900 -50 Descending Indianapolis Center
Sun 02:45:18 AM 40.8739 -83.5250 324° Northwest 162 186 5,900 50 Level Indianapolis Center
Sun 02:46:18 AM 40.9172 -83.5444 341° North 164 189 6,000 85 Climbing Indianapolis Center
Sun 02:47:39 AM 40.9725 -83.5617 347° North 161 185 6,100 -43 Climbing Cleveland Center
Sun 02:48:39 AM 41.0178 -83.5856 338° Northwest 161 185 5,900 -200 Descending Cleveland Center

Login

Don't have an account? Register now (free) for customized features, flight alerts, and more!